This is the latest recevied weather packets stored in our database for station/object LRCT. If no packets are shown the sender has not sent any weather packets the latest 10 day(s).
| Time | Temp. | Humidity | Pressure | Rain* | Wind** | Luminosity | Snow |
|---|---|---|---|---|---|---|---|
| 1787854731 | 21.11° C | 64% | 1020 hPa | - | - | - | - |
| 1787852036 | 22.78° C | 53% | 1019 hPa | - | - | - | - |
| 1787851131 | 22.78° C | 53% | 1019 hPa | - | - | - | - |
| 1787848437 | 23.89° C | 54% | 1019 hPa | - | - | - | - |
| 1787847534 | 23.89° C | 54% | 1019 hPa | - | - | - | - |
| 1787846637 | 23.89° C | 54% | 1019 hPa | - | - | - | - |
| 1787845737 | 23.89° C | 54% | 1018 hPa | - | - | - | - |
| 1787844837 | 23.89° C | 54% | 1018 hPa | - | - | - | - |
| 1787843936 | 23.89° C | 54% | 1018 hPa | - | - | - | - |
| 1787841238 | 28.89° C | 33% | 1017 hPa | - | - | - | - |
| 1787840336 | 28.89° C | 33% | 1017 hPa | - | - | - | - |
| 1787838534 | 27.78° C | 37% | 1017 hPa | - | - | - | - |
| 1787830438 | 26.11° C | 51% | 1018 hPa | - | - | - | - |
| 1787829537 | 26.11° C | 51% | 1018 hPa | - | - | - | - |
| 1787827738 | 27.22° C | 51% | 1019 hPa | - | - | - | - |
| 1787826837 | 27.22° C | 51% | 1019 hPa | - | - | - | - |
| 1787825938 | 27.22° C | 51% | 1019 hPa | - | - | - | - |
| 1787825037 | 27.22° C | 51% | 1019 hPa | - | - | - | - |
| 1787823237 | 23.89° C | 61% | 1020 hPa | - | - | - | - |
| 1787822338 | 23.89° C | 61% | 1020 hPa | - | - | - | - |
| 1787821437 | 23.89° C | 61% | 1020 hPa | - | - | - | - |
| 1787819638 | 22.78° C | 74% | 1020 hPa | - | - | - | - |
| 1787818737 | 22.78° C | 74% | 1020 hPa | - | - | - | - |
| 1787817837 | 22.78° C | 74% | 1020 hPa | - | - | - | - |
| 1787816938 | 21.11° C | 83% | 1019 hPa | - | - | - | - |
* Rain since midnight (hover to see other rain measurements)
** Current wind speed in m/s (hover to see current wind gust speed)